createdAt,value
2022-12-31T14:20:06.815Z,60.74
2022-12-31T14:23:00.270Z,62.70
2022-12-31T14:25:33.024Z,63.56
2022-12-31T14:28:03.040Z,64.94
2022-12-31T14:30:34.132Z,64.45
2022-12-31T14:33:25.454Z,65.13
2022-12-31T14:36:09.992Z,65.57
2022-12-31T14:38:52.544Z,65.87
2022-12-31T14:41:39.119Z,66.46
2022-12-31T14:44:26.893Z,66.87
2022-12-31T14:47:07.453Z,67.60
2022-12-31T14:49:33.831Z,67.91
2022-12-31T14:52:21.360Z,67.71
2022-12-31T14:55:09.700Z,67.83
2022-12-31T14:58:17.225Z,67.75
2022-12-31T15:00:39.803Z,68.02
2022-12-31T15:03:34.574Z,68.03
2022-12-31T15:06:18.988Z,67.98
2022-12-31T15:08:59.945Z,68.05
2022-12-31T15:11:46.038Z,66.83
2022-12-31T15:14:24.616Z,66.59
2022-12-31T15:17:10.769Z,66.19
2022-12-31T15:19:56.368Z,66.38
2022-12-31T15:22:46.394Z,66.12
2022-12-31T15:25:38.452Z,65.82
2022-12-31T15:28:22.821Z,65.48
2022-12-31T15:30:50.568Z,65.25
2022-12-31T15:33:21.872Z,65.48
2022-12-31T15:35:51.556Z,66.23
2022-12-31T15:38:30.145Z,67.95
2022-12-31T15:40:57.106Z,66.16
2022-12-31T15:43:33.726Z,66.28
2022-12-31T15:46:01.847Z,65.79
2022-12-31T15:48:41.731Z,66.10
2022-12-31T15:51:15.565Z,66.13
2022-12-31T15:53:46.940Z,66.20
2022-12-31T15:56:22.387Z,66.14
2022-12-31T15:58:54.618Z,66.10
2022-12-31T16:01:24.214Z,65.79
2022-12-31T16:04:06.888Z,66.00
2022-12-31T16:06:37.435Z,65.63
2022-12-31T16:09:08.640Z,65.93
2022-12-31T16:11:41.778Z,66.27
2022-12-31T16:14:26.552Z,66.45
2022-12-31T16:16:58.731Z,65.94
2022-12-31T16:19:28.385Z,65.33
2022-12-31T16:21:57.065Z,65.42
2022-12-31T16:24:37.474Z,65.36
2022-12-31T16:27:16.817Z,65.71
2022-12-31T16:29:52.252Z,66.09
2022-12-31T16:32:22.081Z,65.79
2022-12-31T16:34:48.700Z,65.62
2022-12-31T16:37:20.681Z,65.93
2022-12-31T16:39:56.734Z,66.04
2022-12-31T16:42:28.615Z,65.68
2022-12-31T16:44:57.463Z,65.81
2022-12-31T16:47:36.224Z,65.49
2022-12-31T16:50:08.038Z,66.10
2022-12-31T16:52:40.960Z,65.66
2022-12-31T16:55:10.208Z,65.34
2022-12-31T16:57:37.344Z,65.18
2022-12-31T17:00:06.843Z,65.10
2022-12-31T17:02:44.014Z,65.25
2022-12-31T17:05:22.296Z,64.92
2022-12-31T17:07:49.127Z,65.16
2022-12-31T17:10:15.553Z,64.79
2022-12-31T17:13:25.593Z,64.61
2022-12-31T17:15:41.195Z,64.81
2022-12-31T17:18:08.287Z,64.50
2022-12-31T17:20:35.020Z,64.85
2022-12-31T17:23:05.667Z,64.35
2022-12-31T17:25:35.968Z,64.53
2022-12-31T17:28:05.456Z,64.19
2022-12-31T17:30:40.083Z,64.05
2022-12-31T17:33:12.440Z,64.24
2022-12-31T17:35:43.673Z,64.06
2022-12-31T17:38:22.553Z,63.51
2022-12-31T17:40:52.833Z,63.51
2022-12-31T17:43:22.212Z,63.19
2022-12-31T17:45:51.390Z,63.26
2022-12-31T17:48:20.307Z,62.81
2022-12-31T17:50:48.976Z,62.95
2022-12-31T17:53:16.175Z,63.27
2022-12-31T17:55:48.075Z,63.17
2022-12-31T17:58:18.462Z,63.23
2022-12-31T18:00:45.133Z,63.35
2022-12-31T18:03:11.850Z,64.00
2022-12-31T18:05:38.453Z,63.35
2022-12-31T18:08:05.174Z,63.29
2022-12-31T18:10:36.410Z,62.74
2022-12-31T18:13:05.687Z,62.38
2022-12-31T18:15:32.346Z,62.60
2022-12-31T18:17:58.893Z,62.50
2022-12-31T18:20:26.325Z,62.94
2022-12-31T18:22:52.970Z,63.04
2022-12-31T18:25:22.422Z,63.30
2022-12-31T18:27:52.216Z,63.10
2022-12-31T18:30:19.996Z,63.47
2022-12-31T18:32:46.856Z,62.81
2022-12-31T18:35:48.565Z,63.14
2022-12-31T18:38:03.697Z,62.60
2022-12-31T18:40:30.379Z,62.76
2022-12-31T18:43:02.695Z,62.79
2022-12-31T18:45:31.303Z,62.85
2022-12-31T18:47:57.835Z,63.19
2022-12-31T18:50:24.384Z,62.98
2022-12-31T18:52:50.865Z,63.86
2022-12-31T18:55:26.321Z,63.36
2022-12-31T18:57:53.985Z,62.87
2022-12-31T19:00:20.689Z,62.73
2022-12-31T19:02:47.183Z,63.01
2022-12-31T19:05:23.728Z,63.20
2022-12-31T19:07:50.172Z,63.18
2022-12-31T19:10:17.041Z,62.97
2022-12-31T19:12:44.400Z,63.08
2022-12-31T19:15:39.153Z,63.55
2022-12-31T19:18:15.807Z,63.57
2022-12-31T19:20:43.540Z,63.90
2022-12-31T19:23:24.009Z,64.05
2022-12-31T19:25:51.561Z,63.99
2022-12-31T19:28:24.204Z,64.21
2022-12-31T19:30:55.762Z,64.36
2022-12-31T19:33:22.524Z,64.38
2022-12-31T19:35:49.597Z,64.29
2022-12-31T19:38:24.341Z,64.37
2022-12-31T19:40:52.414Z,63.87
2022-12-31T19:43:21.373Z,63.95
2022-12-31T19:45:48.860Z,64.09
2022-12-31T19:48:19.047Z,64.09
2022-12-31T19:50:48.826Z,64.21
2022-12-31T19:53:19.647Z,64.38
2022-12-31T19:55:46.319Z,64.34
2022-12-31T19:58:19.279Z,63.95
2022-12-31T20:00:54.567Z,63.76
2022-12-31T20:03:23.888Z,63.67
2022-12-31T20:05:50.627Z,63.33
2022-12-31T20:08:20.249Z,63.07
2022-12-31T20:10:46.905Z,62.94
2022-12-31T20:13:13.310Z,62.88
2022-12-31T20:15:40.444Z,62.86
2022-12-31T20:18:06.947Z,63.45
2022-12-31T20:20:33.415Z,62.71
2022-12-31T20:22:59.942Z,62.87
2022-12-31T20:25:26.472Z,62.98
2022-12-31T20:27:54.688Z,63.23
2022-12-31T20:30:22.954Z,62.95
2022-12-31T20:32:52.104Z,62.35
2022-12-31T20:35:19.645Z,62.42
2022-12-31T20:37:49.148Z,61.61
2022-12-31T20:40:18.527Z,61.85
2022-12-31T20:42:47.116Z,61.79
2022-12-31T20:45:13.710Z,60.91
2022-12-31T20:47:40.972Z,60.91
2022-12-31T20:50:12.194Z,60.71
2022-12-31T20:52:39.239Z,61.05
2022-12-31T20:55:06.207Z,60.42
2022-12-31T20:57:35.630Z,60.58
2022-12-31T21:00:06.614Z,60.70
2022-12-31T21:02:42.284Z,59.76
2022-12-31T21:05:09.987Z,59.32
2022-12-31T21:07:36.595Z,59.48
2022-12-31T21:10:03.544Z,59.81
2022-12-31T21:12:45.571Z,58.87
2022-12-31T21:15:13.708Z,58.52
2022-12-31T21:17:42.093Z,58.25
2022-12-31T21:20:14.717Z,57.79
2022-12-31T21:22:41.207Z,58.50
2022-12-31T21:25:07.893Z,58.25
2022-12-31T21:27:35.825Z,58.60
2022-12-31T21:30:18.440Z,57.71
2022-12-31T21:32:45.698Z,57.68
2022-12-31T21:35:42.324Z,58.07
2022-12-31T21:38:07.578Z,57.63
2022-12-31T21:40:34.230Z,57.73
2022-12-31T21:43:00.782Z,57.88
2022-12-31T21:45:27.234Z,57.42
2022-12-31T21:48:12.196Z,57.91
2022-12-31T21:50:38.581Z,57.61
2022-12-31T21:53:04.982Z,57.55
2022-12-31T21:55:50.129Z,57.80
2022-12-31T21:58:26.503Z,58.02
2022-12-31T22:01:13.741Z,57.99
2022-12-31T22:03:40.886Z,57.37
2022-12-31T22:06:14.309Z,57.56
2022-12-31T22:08:45.560Z,57.36
2022-12-31T22:11:13.156Z,57.41
2022-12-31T22:13:40.095Z,57.13
2022-12-31T22:16:07.745Z,56.19
2022-12-31T22:18:38.714Z,57.01
2022-12-31T22:21:18.294Z,56.29
2022-12-31T22:23:47.039Z,56.74
2022-12-31T22:26:15.649Z,56.78
2022-12-31T22:28:43.832Z,56.57
2022-12-31T22:31:21.114Z,56.75
2022-12-31T22:33:48.175Z,56.43
2022-12-31T22:36:17.950Z,56.72
2022-12-31T22:38:48.509Z,56.41
2022-12-31T22:41:18.474Z,56.71
2022-12-31T22:43:57.197Z,56.65
2022-12-31T22:46:28.493Z,56.92
2022-12-31T22:48:58.307Z,57.22
2022-12-31T22:51:25.690Z,57.16
2022-12-31T22:53:55.974Z,56.74
2022-12-31T22:56:22.460Z,56.63
2022-12-31T22:58:49.166Z,56.31
2022-12-31T23:01:19.653Z,56.12
2022-12-31T23:03:48.252Z,56.02
2022-12-31T23:06:15.375Z,55.95
2022-12-31T23:09:02.115Z,56.13
2022-12-31T23:11:29.192Z,55.36
2022-12-31T23:14:13.978Z,55.04
2022-12-31T23:16:59.264Z,54.63
2022-12-31T23:20:04.252Z,54.80
2022-12-31T23:22:49.100Z,55.39
2022-12-31T23:25:15.695Z,54.79
2022-12-31T23:27:42.207Z,54.62
2022-12-31T23:30:09.142Z,54.90
2022-12-31T23:32:35.613Z,54.82
2022-12-31T23:35:07.807Z,54.84
2022-12-31T23:37:36.309Z,54.57
2022-12-31T23:40:02.734Z,54.67
2022-12-31T23:42:29.161Z,54.26
2022-12-31T23:44:55.559Z,54.29
2022-12-31T23:47:22.030Z,54.18
2022-12-31T23:49:48.518Z,54.26
2022-12-31T23:52:14.973Z,54.21
2022-12-31T23:54:41.482Z,54.44
2022-12-31T23:57:08.104Z,53.90
2022-12-31T23:59:34.549Z,53.65
